Time;durP1;ratioP1;P1;durP2;ratioP2;P2;SDS_P1;SDS_P2;PMS_P1;PMS_P2;Temp;Humidity;BMP_temperature;BMP_pressure;BME280_temperature;BME280_humidity;BME280_pressure;Samples;Min_cycle;Max_cycle;Signal;HPM_P1;HPM_P2
2022/07/03 00:00:53;;;;;;;6.65;1.77;;;27.00;42.70;;;;;;6179095;28;20023;-71
2022/07/03 00:03:54;;;;;;;3.53;1.77;;;26.90;42.80;;;;;;6167864;28;20492;-69
2022/07/03 00:06:55;;;;;;;2.90;1.70;;;27.00;43.20;;;;;;6161040;28;20028;-70
2022/07/03 00:09:56;;;;;;;2.60;1.73;;;26.90;43.50;;;;;;6161635;28;20032;-70
2022/07/03 00:12:56;;;;;;;4.50;1.48;;;26.90;44.00;;;;;;6156290;28;20031;-68
2022/07/03 00:15:57;;;;;;;4.25;1.80;;;26.80;43.90;;;;;;6156223;28;20026;-68
2022/07/03 00:18:58;;;;;;;3.20;1.50;;;26.80;43.70;;;;;;6160392;28;20026;-68
2022/07/03 00:22:04;;;;;;;3.83;1.52;;;26.80;43.30;;;;;;6182394;28;20368;-68
2022/07/03 00:25:07;;;;;;;4.45;1.75;;;26.80;43.00;;;;;;6184826;28;20046;-68
2022/07/03 00:28:08;;;;;;;6.65;1.73;;;26.70;42.80;;;;;;6162679;28;20062;-69
2022/07/03 00:31:11;;;;;;;5.30;1.60;;;26.70;42.80;;;;;;6172874;28;20125;-69
2022/07/03 00:34:15;;;;;;;2.95;1.48;;;26.70;42.70;;;;;;6184485;28;20368;-69
2022/07/03 00:37:16;;;;;;;1.88;1.15;;;26.70;42.80;;;;;;6169639;28;20058;-69
2022/07/03 00:40:17;;;;;;;3.83;1.48;;;26.60;42.70;;;;;;6162351;28;20057;-69
2022/07/03 00:43:19;;;;;;;3.45;1.30;;;26.60;42.70;;;;;;6168583;28;20039;-69
2022/07/03 00:46:23;;;;;;;2.25;1.45;;;26.60;43.20;;;;;;6162532;28;20035;-69
2022/07/03 00:49:24;;;;;;;2.17;1.55;;;26.60;42.60;;;;;;6162105;28;20039;-69
2022/07/03 00:52:28;;;;;;;2.47;1.42;;;26.50;42.40;;;;;;6187985;28;20369;-68
2022/07/03 00:55:29;;;;;;;2.88;1.35;;;26.50;42.30;;;;;;6179213;28;20440;-69
2022/07/03 00:58:33;;;;;;;2.75;1.73;;;26.50;42.20;;;;;;6162296;28;20038;-69
2022/07/03 01:01:37;;;;;;;2.38;1.48;;;26.40;42.10;;;;;;6166345;28;20031;-70
2022/07/03 01:05:06;;;;;;;1.90;1.30;;;26.50;42.10;;;;;;6162412;28;20027;-70
2022/07/03 01:08:37;;;;;;;1.95;1.30;;;26.40;42.00;;;;;;6186846;28;20427;-69
2022/07/03 01:11:47;;;;;;;6.30;1.30;;;26.40;42.10;;;;;;6184941;28;20034;-69
2022/07/03 01:15:07;;;;;;;6.07;1.45;;;26.30;42.00;;;;;;6185256;28;20086;-68
2022/07/03 01:18:20;;;;;;;4.75;1.40;;;26.30;42.10;;;;;;6184702;28;20037;-68
2022/07/03 01:21:35;;;;;;;2.63;1.58;;;26.30;42.20;;;;;;6151365;28;20046;-69
2022/07/03 01:24:42;;;;;;;2.63;1.35;;;26.20;42.30;;;;;;6173709;28;20049;-70
2022/07/03 01:28:02;;;;;;;3.85;1.35;;;26.20;42.40;;;;;;6184674;28;20354;-68
2022/07/03 01:31:03;;;;;;;11.20;6.13;;;26.20;42.50;;;;;;6184734;28;20109;-70
2022/07/03 01:34:12;;;;;;;22.50;9.27;;;26.10;42.60;;;;;;6201348;28;20033;-70
2022/07/03 01:37:17;;;;;;;13.52;5.68;;;26.10;42.80;;;;;;6168354;28;20023;-70
2022/07/03 01:40:18;;;;;;;15.55;6.47;;;26.10;42.80;;;;;;6184115;28;20026;-70
2022/07/03 01:43:22;;;;;;;15.93;6.40;;;26.10;43.10;;;;;;6184435;28;20045;-69
2022/07/03 01:46:31;;;;;;;16.88;6.63;;;26.00;43.80;;;;;;6201196;28;20026;-69
2022/07/03 01:49:34;;;;;;;13.07;5.80;;;26.00;44.30;;;;;;6200928;28;20041;-69
2022/07/03 01:52:37;;;;;;;10.13;4.82;;;26.00;44.90;;;;;;6196851;28;20121;-68
2022/07/03 01:55:39;;;;;;;6.88;3.53;;;26.00;45.40;;;;;;6165732;28;20114;-69
2022/07/03 01:58:41;;;;;;;9.18;3.53;;;25.90;45.80;;;;;;6177995;28;20027;-69
2022/07/03 02:01:57;;;;;;;8.18;3.30;;;25.80;46.00;;;;;;6169992;28;20096;-68
2022/07/03 02:05:04;;;;;;;4.75;2.78;;;25.80;46.30;;;;;;6177955;28;20086;-68
2022/07/03 02:08:26;;;;;;;10.73;3.38;;;25.70;46.40;;;;;;6177735;28;20027;-69
2022/07/03 02:11:32;;;;;;;6.20;2.72;;;25.70;46.40;;;;;;6179996;28;20092;-68
2022/07/03 02:14:36;;;;;;;4.50;2.55;;;25.70;46.10;;;;;;6183658;28;20440;-69
2022/07/03 02:17:43;;;;;;;6.32;2.50;;;25.70;45.90;;;;;;6179312;28;20044;-69
2022/07/03 02:20:51;;;;;;;4.18;1.88;;;25.70;45.70;;;;;;6183425;28;20030;-69
2022/07/03 02:24:15;;;;;;;3.00;1.85;;;25.70;45.60;;;;;;6190698;28;20081;-69
2022/07/03 02:27:28;;;;;;;2.00;1.50;;;25.70;45.70;;;;;;6170545;28;20030;-69
2022/07/03 02:30:29;;;;;;;2.40;1.70;;;25.70;45.70;;;;;;6192752;28;20062;-69
2022/07/03 02:33:31;;;;;;;2.22;1.50;;;25.60;46.10;;;;;;6182694;28;20044;-68
2022/07/03 02:36:35;;;;;;;3.88;1.70;;;25.60;46.70;;;;;;6183128;28;20026;-70
2022/07/03 02:39:43;;;;;;;1.65;1.23;;;25.60;47.20;;;;;;6184963;28;20464;-68
2022/07/03 02:42:44;;;;;;;1.30;1.20;;;25.50;47.50;;;;;;6159892;28;20093;-68
2022/07/03 02:46:48;;;;;;;3.03;1.42;;;25.50;47.60;;;;;;6159920;28;20030;-68
2022/07/03 02:49:28;;;;;;;1.95;1.40;;;25.40;47.80;;;;;;6159623;28;20030;-69
2022/07/03 02:52:38;;;;;;;1.85;1.40;;;25.40;48.10;;;;;;6177602;28;20098;-69
2022/07/03 02:55:43;;;;;;;3.45;1.40;;;25.30;48.50;;;;;;6176676;28;20061;-68
2022/07/03 02:59:11;;;;;;;5.25;1.80;;;25.20;48.70;;;;;;6176724;28;20027;-69
2022/07/03 03:02:49;;;;;;;2.35;1.27;;;25.20;49.00;;;;;;6159512;28;20411;-69
2022/07/03 03:05:54;;;;;;;5.15;1.55;;;25.10;48.90;;;;;;6149427;28;20056;-69
2022/07/03 03:09:03;;;;;;;2.15;1.48;;;25.10;49.00;;;;;;6182419;28;20039;-69
2022/07/03 03:12:06;;;;;;;5.10;1.42;;;25.00;49.20;;;;;;6181358;28;20061;-69
2022/07/03 03:15:13;;;;;;;2.00;1.50;;;25.00;50.00;;;;;;6176506;28;20049;-69
2022/07/03 03:18:21;;;;;;;1.40;1.20;;;25.00;49.70;;;;;;6176285;28;20432;-69
2022/07/03 03:21:28;;;;;;;3.53;1.50;;;24.90;49.90;;;;;;6176502;28;20384;-69
2022/07/03 03:24:31;;;;;;;1.55;1.42;;;24.90;50.20;;;;;;6176503;28;20098;-69
2022/07/03 03:27:32;;;;;;;3.63;1.40;;;24.90;50.40;;;;;;6159518;28;20070;-69
2022/07/03 03:30:35;;;;;;;3.50;1.50;;;24.80;50.40;;;;;;6180357;28;20121;-69
2022/07/03 03:33:39;;;;;;;1.58;1.38;;;24.80;50.60;;;;;;6186946;28;20121;-69
2022/07/03 03:36:40;;;;;;;2.60;1.40;;;24.70;50.80;;;;;;6187276;28;20034;-69
2022/07/03 03:39:42;;;;;;;1.73;1.23;;;24.70;50.90;;;;;;6187299;28;20041;-69
2022/07/03 03:42:43;;;;;;;1.52;1.27;;;24.60;50.90;;;;;;6164109;28;20031;-69
2022/07/03 03:45:45;;;;;;;3.28;1.58;;;24.60;50.90;;;;;;6164138;28;20027;-69
2022/07/03 03:48:48;;;;;;;1.98;1.73;;;24.60;50.90;;;;;;6180581;28;20085;-69
2022/07/03 03:51:48;;;;;;;2.30;1.80;;;24.60;51.00;;;;;;6183993;28;20034;-69
2022/07/03 03:54:49;;;;;;;2.25;1.70;;;24.50;51.20;;;;;;6167184;28;20448;-69
2022/07/03 03:57:51;;;;;;;2.05;1.48;;;24.50;51.30;;;;;;6195935;28;20026;-69
2022/07/03 04:00:53;;;;;;;1.60;1.35;;;24.50;51.50;;;;;;6170651;28;20041;-69
2022/07/03 04:03:54;;;;;;;5.93;1.98;;;24.50;51.70;;;;;;6186054;28;20092;-68
2022/07/03 04:06:55;;;;;;;3.70;1.40;;;24.50;51.70;;;;;;6202865;28;20423;-69
2022/07/03 04:09:56;;;;;;;2.58;1.67;;;24.40;51.60;;;;;;6203680;28;20026;-69
2022/07/03 04:12:57;;;;;;;2.58;1.52;;;24.40;51.60;;;;;;6193620;28;20368;-69
2022/07/03 04:15:58;;;;;;;5.10;1.85;;;24.50;51.50;;;;;;6177212;28;20037;-68
2022/07/03 04:18:59;;;;;;;1.67;1.58;;;24.50;51.30;;;;;;6180187;28;20500;-69
2022/07/03 04:21:59;;;;;;;4.20;1.70;;;24.60;51.20;;;;;;6146629;28;20116;-68
2022/07/03 04:25:00;;;;;;;3.80;1.90;;;24.70;51.00;;;;;;6178711;28;20026;-69
2022/07/03 04:28:01;;;;;;;6.93;2.25;;;24.70;51.00;;;;;;6183738;28;20372;-68
2022/07/03 04:31:02;;;;;;;2.38;1.48;;;24.70;50.90;;;;;;6196248;28;20077;-68
2022/07/03 04:34:03;;;;;;;3.35;1.40;;;24.70;50.90;;;;;;6201400;28;20030;-68
2022/07/03 04:37:04;;;;;;;2.92;1.60;;;24.70;51.00;;;;;;6201661;28;20026;-69
2022/07/03 04:40:06;;;;;;;4.82;1.67;;;24.70;51.10;;;;;;6176570;28;20030;-68
2022/07/03 04:43:07;;;;;;;2.53;1.42;;;24.70;51.30;;;;;;6161138;28;20117;-69
2022/07/03 04:46:08;;;;;;;2.17;1.60;;;24.60;51.40;;;;;;6162783;28;20049;-69
2022/07/03 04:49:08;;;;;;;2.13;1.20;;;24.60;51.40;;;;;;6171570;28;20101;-69
2022/07/03 04:52:09;;;;;;;3.90;1.67;;;24.60;51.40;;;;;;6183803;28;20039;-68
2022/07/03 04:55:11;;;;;;;7.85;2.05;;;24.60;51.40;;;;;;6184051;28;20081;-69
2022/07/03 04:58:12;;;;;;;7.63;2.10;;;24.60;51.50;;;;;;6184132;28;20037;-69
2022/07/03 05:01:13;;;;;;;3.42;1.60;;;24.60;51.50;;;;;;6201039;28;20062;-68
2022/07/03 05:04:14;;;;;;;3.88;1.70;;;24.60;52.00;;;;;;6158161;28;20047;-69
2022/07/03 05:07:14;;;;;;;6.60;1.75;;;24.60;51.40;;;;;;6172732;28;20041;-69
2022/07/03 05:10:15;;;;;;;3.28;1.95;;;24.70;51.30;;;;;;6200817;28;20474;-69
2022/07/03 05:13:16;;;;;;;4.63;1.50;;;24.70;51.00;;;;;;6169630;28;20060;-69
2022/07/03 05:16:17;;;;;;;6.50;1.52;;;24.80;50.50;;;;;;6160492;28;20062;-69
2022/07/03 05:19:18;;;;;;;1.55;1.35;;;24.90;49.70;;;;;;6159224;28;20360;-69
2022/07/03 05:22:19;;;;;;;1.90;1.10;;;25.00;48.60;;;;;;6102564;28;1226061;-69
2022/07/03 05:25:20;;;;;;;4.32;1.40;;;25.00;47.60;;;;;;6161651;28;20061;-69
2022/07/03 05:28:21;;;;;;;6.43;1.67;;;25.00;47.10;;;;;;6178541;28;20030;-69
2022/07/03 05:31:22;;;;;;;2.17;1.42;;;25.00;46.90;;;;;;6181808;28;20066;-69
2022/07/03 05:34:22;;;;;;;2.33;1.52;;;25.10;47.40;;;;;;6201512;28;20039;-69
2022/07/03 05:37:23;;;;;;;3.13;1.50;;;25.10;47.90;;;;;;6177134;28;20113;-69
2022/07/03 05:40:24;;;;;;;3.40;1.80;;;25.10;48.20;;;;;;6199588;28;20069;-69
2022/07/03 05:43:25;;;;;;;2.38;1.80;;;25.10;48.40;;;;;;6184028;28;20151;-69
2022/07/03 05:46:26;;;;;;;1.70;1.38;;;25.20;48.60;;;;;;6184216;28;20034;-69
2022/07/03 05:49:27;;;;;;;4.18;2.10;;;25.30;48.60;;;;;;6183822;28;20128;-69
2022/07/03 05:52:28;;;;;;;4.85;1.48;;;25.40;48.70;;;;;;6183030;28;20128;-69
2022/07/03 05:55:28;;;;;;;2.78;1.60;;;25.40;48.80;;;;;;6177128;28;20376;-69
2022/07/03 05:58:29;;;;;;;3.65;1.80;;;25.40;48.90;;;;;;6165072;28;20022;-69
2022/07/03 06:01:30;;;;;;;5.15;1.70;;;25.50;49.30;;;;;;6181410;28;20050;-69
2022/07/03 06:04:31;;;;;;;1.75;1.48;;;25.40;49.50;;;;;;6167193;28;20035;-69
2022/07/03 06:07:32;;;;;;;4.10;1.60;;;25.40;49.70;;;;;;6163613;28;20460;-69
2022/07/03 06:10:33;;;;;;;3.75;1.20;;;25.40;49.80;;;;;;6164703;28;20371;-69
2022/07/03 06:13:34;;;;;;;2.65;1.60;;;25.40;49.90;;;;;;6165305;28;20042;-69
2022/07/03 06:16:35;;;;;;;1.45;1.33;;;25.40;49.90;;;;;;6144463;28;20062;-69
2022/07/03 06:19:36;;;;;;;2.42;1.52;;;25.40;49.90;;;;;;6160173;28;20062;-69
2022/07/03 06:22:38;;;;;;;1.80;1.25;;;25.50;49.80;;;;;;6176701;28;20125;-69
2022/07/03 06:25:38;;;;;;;2.97;1.42;;;25.60;49.60;;;;;;6200338;28;20026;-69
2022/07/03 06:28:39;;;;;;;2.95;1.60;;;25.60;49.50;;;;;;6187357;28;20073;-69
2022/07/03 06:31:40;;;;;;;2.45;1.38;;;25.70;49.20;;;;;;6183227;28;20050;-69
2022/07/03 06:34:44;;;;;;;2.63;1.83;;;25.80;48.90;;;;;;6182768;28;20027;-69
2022/07/03 06:37:45;;;;;;;2.97;1.60;;;26.00;48.60;;;;;;6174189;28;20077;-68
2022/07/03 06:40:46;;;;;;;3.25;1.45;;;26.20;48.40;;;;;;6160125;28;20341;-68
2022/07/03 06:43:47;;;;;;;2.80;1.60;;;26.30;47.90;;;;;;6183360;28;20041;-68
2022/07/03 06:46:48;;;;;;;3.78;1.50;;;26.40;47.50;;;;;;6161131;28;20349;-69
2022/07/03 06:49:49;;;;;;;3.47;1.77;;;26.50;47.30;;;;;;6176505;28;20026;-69
2022/07/03 06:52:50;;;;;;;3.42;1.80;;;26.60;47.20;;;;;;6194734;28;20077;-69
2022/07/03 06:55:51;;;;;;;2.85;1.60;;;26.70;47.00;;;;;;6199723;28;20022;-70
2022/07/03 06:58:52;;;;;;;3.28;1.40;;;26.90;46.70;;;;;;6193157;28;20034;-69
2022/07/03 07:01:53;;;;;;;3.03;1.55;;;27.10;46.50;;;;;;6199809;28;20069;-70
2022/07/03 07:04:54;;;;;;;7.03;1.88;;;27.10;46.30;;;;;;6160050;28;20048;-69
2022/07/03 07:07:55;;;;;;;2.28;1.45;;;27.10;46.10;;;;;;6166715;28;20035;-69
2022/07/03 07:10:56;;;;;;;1.90;1.55;;;27.10;46.00;;;;;;6159053;28;20093;-69
2022/07/03 07:13:57;;;;;;;5.43;1.60;;;27.20;45.90;;;;;;6159328;28;20043;-70
2022/07/03 07:16:58;;;;;;;4.22;1.60;;;27.20;45.90;;;;;;6143468;28;20034;-70
2022/07/03 07:19:59;;;;;;;3.88;1.60;;;27.30;45.80;;;;;;6159071;28;20023;-69
2022/07/03 07:23:00;;;;;;;2.70;1.50;;;27.40;45.50;;;;;;6177892;28;20494;-68
2022/07/03 07:26:02;;;;;;;35.53;2.90;;;27.50;45.30;;;;;;6178319;28;20105;-70
2022/07/03 07:29:03;;;;;;;5.35;1.35;;;27.60;45.10;;;;;;6167942;28;20058;-70
2022/07/03 07:32:04;;;;;;;2.70;1.40;;;27.70;44.90;;;;;;6181761;28;20030;-69
2022/07/03 07:35:06;;;;;;;2.13;1.35;;;27.80;44.60;;;;;;6199193;28;20156;-69
2022/07/03 07:38:07;;;;;;;8.40;1.70;;;27.90;44.30;;;;;;6165549;28;20031;-70
2022/07/03 07:41:09;;;;;;;3.33;2.08;;;28.10;43.20;;;;;;6198198;28;20034;-70
2022/07/03 07:44:10;;;;;;;5.18;2.35;;;28.10;42.40;;;;;;6160605;28;20560;-69
2022/07/03 07:47:12;;;;;;;4.15;2.17;;;28.30;42.20;;;;;;6193341;28;20363;-69
2022/07/03 07:50:14;;;;;;;4.25;1.75;;;28.60;41.40;;;;;;6179772;28;20029;-69
2022/07/03 07:53:15;;;;;;;6.45;1.48;;;28.80;40.70;;;;;;6183657;28;20117;-68
2022/07/03 07:56:16;;;;;;;1.10;1.00;;;29.00;39.70;;;;;;6181415;28;20061;-69
2022/07/03 07:59:17;;;;;;;3.25;1.02;;;29.10;39.40;;;;;;6197232;28;20389;-69
2022/07/03 08:05:38;;;;;;;2.97;1.33;;;29.10;38.90;;;;;;6186859;28;20363;-70
2022/07/03 08:08:39;;;;;;;6.10;1.30;;;29.20;38.40;;;;;;6176010;28;20027;-70
2022/07/03 08:11:41;;;;;;;3.33;1.50;;;29.30;37.90;;;;;;6175484;28;20049;-70
2022/07/03 08:14:42;;;;;;;2.78;1.38;;;29.40;37.50;;;;;;6187319;28;20022;-70
2022/07/03 08:17:43;;;;;;;1.70;1.20;;;29.50;37.30;;;;;;6185844;28;20053;-71
2022/07/03 08:20:44;;;;;;;1.27;0.95;;;29.60;37.10;;;;;;6203226;28;20561;-70
2022/07/03 08:23:45;;;;;;;2.88;1.20;;;29.70;37.20;;;;;;6184990;28;20133;-69
2022/07/03 08:26:46;;;;;;;3.92;1.33;;;29.90;37.10;;;;;;6146771;28;20041;-69
2022/07/03 08:29:49;;;;;;;3.63;1.10;;;30.00;36.50;;;;;;6194116;28;20359;-69
2022/07/03 08:32:53;;;;;;;2.25;1.35;;;30.10;36.50;;;;;;6202611;28;20038;-69
2022/07/03 08:35:54;;;;;;;1.83;1.20;;;30.20;36.50;;;;;;6202901;28;20353;-70
2022/07/03 08:38:56;;;;;;;4.07;1.38;;;30.40;36.00;;;;;;6185416;28;20126;-70
2022/07/03 08:41:58;;;;;;;4.03;1.52;;;30.60;35.90;;;;;;6189061;28;20058;-69
2022/07/03 08:45:01;;;;;;;1.20;1.10;;;30.80;35.60;;;;;;6160333;28;20026;-69
2022/07/03 08:48:05;;;;;;;4.00;1.20;;;30.90;35.00;;;;;;6189424;28;20341;-69
2022/07/03 08:51:06;;;;;;;1.15;1.05;;;31.00;34.50;;;;;;6146062;28;20031;-69
2022/07/03 08:54:07;;;;;;;1.67;1.30;;;31.10;34.40;;;;;;6179280;28;20041;-70
2022/07/03 08:57:11;;;;;;;3.15;1.73;;;31.20;34.30;;;;;;6163398;28;20338;-69
2022/07/03 09:00:14;;;;;;;6.15;2.95;;;31.30;34.00;;;;;;6152769;28;20026;-70
2022/07/03 09:03:16;;;;;;;9.13;5.53;;;31.40;33.40;;;;;;6201913;28;20037;-70
2022/07/03 09:06:20;;;;;;;3.47;2.22;;;31.50;33.30;;;;;;6166613;28;20407;-69
2022/07/03 09:09:23;;;;;;;5.28;1.40;;;31.50;33.00;;;;;;6195618;28;20109;-69
2022/07/03 09:12:24;;;;;;;3.78;2.38;;;31.70;33.10;;;;;;6201943;28;20041;-69
2022/07/03 09:15:25;;;;;;;9.32;5.40;;;31.80;32.90;;;;;;6202077;28;20022;-69
2022/07/03 09:18:45;;;;;;;8.82;4.57;;;31.80;32.70;;;;;;6184469;28;20525;-69
2022/07/03 09:21:48;;;;;;;2.50;1.38;;;31.90;32.80;;;;;;6201922;28;20069;-70
2022/07/03 09:24:51;;;;;;;1.73;1.33;;;32.00;32.50;;;;;;6183670;28;20414;-70
2022/07/03 09:27:52;;;;;;;3.88;1.60;;;32.10;32.10;;;;;;6200253;28;20037;-70
2022/07/03 09:31:00;;;;;;;1.20;1.10;;;32.20;31.50;;;;;;6201858;28;20045;-70
2022/07/03 09:34:07;;;;;;;;;;;32.20;31.30;;;;;;6160901;28;20059;-70
2022/07/03 09:37:08;;;;;;;7.45;1.30;;;32.20;31.30;;;;;;6185094;28;19925;-69
2022/07/03 09:40:09;;;;;;;5.88;1.25;;;32.20;30.90;;;;;;6161185;28;20027;-70
2022/07/03 09:43:10;;;;;;;3.13;1.40;;;32.20;30.90;;;;;;6145294;28;20097;-70
2022/07/03 09:46:12;;;;;;;1.85;1.27;;;32.10;30.60;;;;;;6184174;28;20069;-69
2022/07/03 09:49:12;;;;;;;1.60;1.05;;;32.20;30.70;;;;;;6200734;28;20030;-69
2022/07/03 09:52:42;;;;;;;2.85;1.42;;;32.20;30.70;;;;;;6184012;28;20030;-69
2022/07/03 09:55:56;;;;;;;6.93;2.17;;;32.20;30.90;;;;;;6182168;28;20089;-69
2022/07/03 09:59:17;;;;;;;2.78;1.73;;;32.30;30.90;;;;;;6162539;28;20041;-70
2022/07/03 10:02:22;;;;;;;4.85;1.20;;;32.30;30.80;;;;;;6164237;28;20035;-70
2022/07/03 10:05:30;;;;;;;2.00;1.55;;;32.70;31.10;;;;;;6160522;28;20074;-70
2022/07/03 10:08:39;;;;;;;3.35;1.30;;;32.80;30.90;;;;;;6178567;28;20125;-69
2022/07/03 10:11:45;;;;;;;2.95;1.23;;;32.70;30.70;;;;;;6183917;28;20030;-69
2022/07/03 10:14:46;;;;;;;1.45;1.33;;;32.80;30.70;;;;;;6200302;28;20022;-69
2022/07/03 10:17:56;;;;;;;1.63;1.40;;;32.80;30.90;;;;;;6182949;28;20033;-69
2022/07/03 10:21:01;;;;;;;1.40;1.30;;;32.80;31.10;;;;;;6183286;28;20042;-69
2022/07/03 10:24:04;;;;;;;2.67;1.45;;;32.90;31.30;;;;;;6183160;28;20039;-69
2022/07/03 10:27:06;;;;;;;1.27;1.17;;;33.00;31.40;;;;;;6182828;28;20027;-69
2022/07/03 10:30:08;;;;;;;2.15;1.33;;;33.10;31.30;;;;;;6182982;28;20030;-69
2022/07/03 10:33:09;;;;;;;1.20;1.10;;;33.20;31.10;;;;;;6167050;28;20359;-69
2022/07/03 10:36:11;;;;;;;1.98;1.40;;;33.30;30.80;;;;;;6183005;28;20467;-69
2022/07/03 10:39:36;;;;;;;1.83;1.05;;;33.40;30.40;;;;;;6199623;28;20092;-69
2022/07/03 10:46:17;;;;;;;5.78;1.30;;;33.60;29.80;;;;;;6127045;29;20035;-69
2022/07/03 10:49:18;;;;;;;1.13;1.02;;;33.70;29.60;;;;;;6092034;29;20072;-69
2022/07/03 10:52:19;;;;;;;2.47;1.40;;;33.80;29.20;;;;;;6106166;29;20118;-69
2022/07/03 10:55:20;;;;;;;1.20;1.08;;;33.90;29.10;;;;;;6117405;29;20135;-69
2022/07/03 10:58:21;;;;;;;2.25;1.23;;;34.00;29.00;;;;;;6126286;29;20039;-69
2022/07/03 11:01:29;;;;;;;1.40;1.27;;;34.00;29.00;;;;;;6091377;29;20103;-69
2022/07/03 11:05:09;;;;;;;7.15;1.40;;;34.00;29.20;;;;;;6093275;29;20422;-69
2022/07/03 11:08:11;;;;;;;3.47;1.15;;;34.10;29.30;;;;;;6090706;29;20459;-69
2022/07/03 11:15:27;;;;;;;2.05;1.33;;;35.90;28.10;;;;;;6126045;29;20039;-69
2022/07/03 11:18:33;;;;;;;4.63;1.10;;;37.10;27.00;;;;;;6103275;28;20039;-69
2022/07/03 11:21:40;;;;;;;4.05;1.13;;;38.10;26.20;;;;;;6143212;28;20034;-69
2022/07/03 11:24:48;;;;;;;1.40;0.90;;;38.70;25.30;;;;;;6171027;28;20034;-69
2022/07/03 11:27:49;;;;;;;2.50;1.27;;;39.20;24.70;;;;;;6170857;28;20053;-70
2022/07/03 11:31:11;;;;;;;1.75;1.08;;;39.60;24.30;;;;;;6159380;28;20031;-70
2022/07/03 11:34:19;;;;;;;1.63;1.05;;;39.90;23.90;;;;;;6152624;28;20042;-69
2022/07/03 11:37:20;;;;;;;0.80;0.75;;;40.10;24.00;;;;;;6199351;28;20535;-69
2022/07/03 11:40:27;;;;;;;4.35;1.10;;;40.40;23.60;;;;;;6182324;28;20038;-70
2022/07/03 11:43:28;;;;;;;4.70;1.60;;;40.50;23.30;;;;;;6179075;28;20030;-69
2022/07/03 11:46:32;;;;;;;1.30;1.15;;;40.60;22.90;;;;;;6178894;28;20416;-70
2022/07/03 11:49:34;;;;;;;1.42;0.90;;;40.80;22.80;;;;;;6160772;28;20042;-70
2022/07/03 11:52:35;;;;;;;1.45;0.88;;;41.00;22.20;;;;;;6201730;28;20035;-70
2022/07/03 11:55:49;;;;;;;7.85;1.00;;;41.30;21.90;;;;;;6176170;28;20026;-69
2022/07/03 11:58:52;;;;;;;1.85;1.08;;;41.50;21.70;;;;;;6147682;28;20153;-70
2022/07/03 12:02:02;;;;;;;1.85;1.17;;;41.60;21.70;;;;;;6180650;28;20047;-70
2022/07/03 12:05:14;;;;;;;1.20;1.10;;;41.50;21.90;;;;;;6167976;28;20026;-70
2022/07/03 12:08:22;;;;;;;5.85;1.25;;;41.40;21.90;;;;;;6184312;28;20083;-70
2022/07/03 12:11:23;;;;;;;5.90;1.00;;;41.20;21.30;;;;;;6183915;28;20035;-70
2022/07/03 12:14:39;;;;;;;2.30;1.10;;;41.30;21.50;;;;;;6186154;28;20077;-70
2022/07/03 12:17:45;;;;;;;1.20;1.10;;;41.20;21.90;;;;;;6185989;28;20050;-70
2022/07/03 12:20:46;;;;;;;1.33;0.93;;;41.40;22.10;;;;;;6186099;28;20392;-70
2022/07/03 12:23:51;;;;;;;4.72;1.20;;;41.80;21.90;;;;;;6185752;28;20111;-70
2022/07/03 12:26:52;;;;;;;4.55;1.05;;;42.10;21.60;;;;;;6184040;28;20054;-70
2022/07/03 12:29:54;;;;;;;0.90;0.75;;;42.30;21.40;;;;;;6201894;28;20113;-70
2022/07/03 12:32:56;;;;;;;1.00;0.90;;;42.40;20.90;;;;;;6185298;28;20096;-70
2022/07/03 12:36:05;;;;;;;3.97;1.10;;;42.50;20.60;;;;;;6203133;28;20049;-69
2022/07/03 12:39:06;;;;;;;1.02;0.90;;;42.70;20.10;;;;;;6185802;28;20416;-69
2022/07/03 12:42:21;;;;;;;2.55;1.00;;;42.70;19.90;;;;;;6185506;28;20030;-70
2022/07/03 12:45:27;;;;;;;2.22;1.15;;;42.90;19.60;;;;;;6185564;28;20031;-69
2022/07/03 12:48:29;;;;;;;1.55;0.90;;;42.70;19.20;;;;;;6202371;28;20089;-71
2022/07/03 12:51:48;;;;;;;0.98;0.85;;;42.50;19.10;;;;;;6202345;28;20026;-72
2022/07/03 12:54:49;;;;;;;1.98;1.80;;;42.40;19.00;;;;;;6164358;28;20085;-71
2022/07/03 13:01:36;;;;;;;2.05;0.75;;;42.70;18.80;;;;;;6178984;28;20122;-72
2022/07/03 13:04:38;;;;;;;1.90;1.00;;;43.10;18.70;;;;;;6161756;28;20043;-71
2022/07/03 13:07:40;;;;;;;1.52;1.00;;;43.50;18.40;;;;;;6179112;28;20146;-71
2022/07/03 13:10:41;;;;;;;4.53;1.23;;;43.80;18.30;;;;;;6192614;28;20112;-71
2022/07/03 13:13:48;;;;;;;3.03;0.90;;;44.10;17.90;;;;;;6193255;28;20030;-73
2022/07/03 13:16:52;;;;;;;5.80;1.15;;;44.50;17.50;;;;;;6202093;28;20057;-71
2022/07/03 13:19:54;;;;;;;2.55;1.15;;;45.00;16.90;;;;;;6183897;28;20026;-72
2022/07/03 13:22:58;;;;;;;2.92;1.30;;;45.40;16.60;;;;;;6184614;28;20431;-71
2022/07/03 13:26:00;;;;;;;2.20;1.02;;;45.80;16.10;;;;;;6169994;28;20517;-72
2022/07/03 13:29:01;;;;;;;5.95;1.30;;;46.00;16.30;;;;;;6197915;28;20470;-72
2022/07/03 13:32:03;;;;;;;4.57;1.02;;;46.50;16.10;;;;;;6178425;28;20551;-72
2022/07/03 13:35:05;;;;;;;8.05;1.20;;;46.80;15.90;;;;;;6164293;28;20468;-72
2022/07/03 13:38:06;;;;;;;1.98;1.05;;;47.30;15.70;;;;;;6183492;28;20057;-71
2022/07/03 13:41:07;;;;;;;1.42;1.15;;;47.70;15.30;;;;;;6168043;28;20022;-72
2022/07/03 13:44:08;;;;;;;5.00;1.25;;;47.90;15.30;;;;;;6176483;28;20042;-72
2022/07/03 13:47:09;;;;;;;1.60;0.98;;;47.90;15.20;;;;;;6179669;28;20038;-72
2022/07/03 13:50:10;;;;;;;3.72;1.10;;;48.20;15.40;;;;;;6183769;28;20031;-72
2022/07/03 13:53:12;;;;;;;1.27;1.00;;;48.50;15.40;;;;;;6167879;28;20042;-72
2022/07/03 13:56:15;;;;;;;4.13;1.00;;;48.80;15.40;;;;;;6184053;28;20031;-72
2022/07/03 13:59:16;;;;;;;3.58;1.20;;;49.10;15.40;;;;;;6179381;28;20023;-72
2022/07/03 14:02:17;;;;;;;4.22;1.20;;;49.20;15.10;;;;;;6165564;28;20113;-72
2022/07/03 14:05:18;;;;;;;3.03;1.10;;;49.10;15.30;;;;;;6160852;28;20044;-71
2022/07/03 14:08:20;;;;;;;1.52;1.33;;;49.20;15.40;;;;;;6200909;28;20030;-71
2022/07/03 14:11:21;;;;;;;2.20;1.20;;;49.50;16.10;;;;;;6200692;28;20037;-72
2022/07/03 14:14:22;;;;;;;3.42;1.10;;;49.70;15.60;;;;;;6199831;28;20027;-72
2022/07/03 14:17:23;;;;;;;1.92;1.13;;;49.90;15.70;;;;;;6167633;28;20032;-72
2022/07/03 14:20:25;;;;;;;1.02;0.95;;;49.80;15.80;;;;;;6200283;28;20030;-72
2022/07/03 14:23:26;;;;;;;1.38;1.13;;;49.80;16.00;;;;;;6200153;28;20376;-72
2022/07/03 14:33:07;;;;;;;3.00;1.30;;;50.00;16.30;;;;;;6159704;28;20066;-72
2022/07/03 14:36:08;;;;;;;0.93;0.88;;;49.80;16.20;;;;;;6173360;28;20030;-72
2022/07/03 14:39:10;;;;;;;2.30;1.20;;;49.30;16.00;;;;;;6199963;28;20030;-72
2022/07/03 14:42:11;;;;;;;1.23;1.13;;;49.00;16.20;;;;;;6182990;28;20026;-72
2022/07/03 14:45:12;;;;;;;5.13;1.33;;;48.60;16.70;;;;;;6165363;28;20363;-72
2022/07/03 14:48:13;;;;;;;4.45;1.40;;;48.20;17.00;;;;;;6184871;28;20031;-72
2022/07/03 14:51:14;;;;;;;2.38;1.38;;;48.10;17.00;;;;;;6164216;28;20420;-72
2022/07/03 14:54:18;;;;;;;1.83;1.25;;;48.10;17.00;;;;;;6159841;28;20030;-72
2022/07/03 14:57:47;;;;;;;2.10;1.30;;;48.10;17.20;;;;;;6164791;28;20129;-72
2022/07/03 15:00:56;;;;;;;4.55;1.38;;;47.60;17.50;;;;;;6175794;28;20440;-72
2022/07/03 15:04:01;;;;;;;10.88;1.70;;;46.70;18.00;;;;;;6178229;28;20033;-72
2022/07/03 15:07:04;;;;;;;6.80;1.85;;;45.70;18.90;;;;;;6173431;28;20034;-72
2022/07/03 15:10:10;;;;;;;1.77;1.10;;;44.60;19.40;;;;;;6159483;28;20065;-71
2022/07/03 15:13:14;;;;;;;3.08;1.50;;;43.80;20.20;;;;;;6159221;28;20066;-71
2022/07/03 15:16:16;;;;;;;2.78;1.38;;;42.80;21.00;;;;;;6166148;28;20041;-71
2022/07/03 15:19:20;;;;;;;3.75;1.40;;;41.90;21.90;;;;;;6158985;28;20130;-71
2022/07/03 15:22:22;;;;;;;3.05;1.40;;;41.10;22.60;;;;;;6159050;28;20055;-72
2022/07/03 15:25:25;;;;;;;4.45;1.33;;;40.50;23.60;;;;;;6179246;28;20030;-72
2022/07/03 15:28:28;;;;;;;5.63;1.10;;;39.90;24.80;;;;;;6161443;28;20042;-72
2022/07/03 15:31:35;;;;;;;1.48;1.38;;;39.30;25.50;;;;;;6198797;28;20460;-71
2022/07/03 15:34:37;;;;;;;4.82;1.20;;;38.70;26.30;;;;;;6204320;28;20474;-71
2022/07/03 15:37:44;;;;;;;1.98;1.20;;;38.20;27.10;;;;;;6169159;28;20034;-71
2022/07/03 15:40:51;;;;;;;1.30;1.20;;;37.70;27.70;;;;;;6163870;28;20077;-71
2022/07/03 15:44:05;;;;;;;2.15;1.73;;;37.30;28.10;;;;;;6181294;28;20081;-71
2022/07/03 15:47:30;;;;;;;2.60;1.30;;;37.00;28.40;;;;;;6180843;28;20026;-71
2022/07/03 15:51:18;;;;;;;3.08;1.42;;;36.60;28.60;;;;;;6163896;28;20113;-71
2022/07/03 15:55:01;;;;;;;1.65;1.13;;;36.40;29.10;;;;;;6087503;29;20462;-71
2022/07/03 15:58:04;;;;;;;2.55;1.35;;;36.10;29.40;;;;;;6083670;29;20394;-71
2022/07/03 16:04:35;;;;;;;3.03;1.45;;;35.80;29.00;;;;;;6090440;29;20044;-70
2022/07/03 16:07:37;;;;;;;2.08;1.38;;;35.70;29.30;;;;;;6088098;29;20024;-71
2022/07/03 16:10:40;;;;;;;8.15;1.58;;;35.60;29.40;;;;;;6067566;29;20374;-70
2022/07/03 16:13:42;;;;;;;3.25;1.58;;;35.50;29.50;;;;;;6088286;29;20040;-70
2022/07/03 16:16:44;;;;;;;6.97;1.85;;;35.30;29.70;;;;;;6074764;29;20463;-71
2022/07/03 16:19:48;;;;;;;5.30;1.70;;;35.30;29.60;;;;;;6105326;29;20047;-70
2022/07/03 16:22:50;;;;;;;1.95;1.33;;;35.30;29.60;;;;;;6105636;29;20063;-71